Time;durP1;ratioP1;P1;durP2;ratioP2;P2;SDS_P1;SDS_P2;PMS_P1;PMS_P2;Temp;Humidity;BMP_temperature;BMP_pressure;BME280_temperature;BME280_humidity;BME280_pressure;Samples;Min_cycle;Max_cycle;Signal;HPM_P1;HPM_P2
2021/03/17 00:00:30;;;;;;;11.32;3.38;;;3.50;99.90;;;;;;5053550;28;20487;-65
2021/03/17 00:02:57;;;;;;;11.77;3.53;;;3.40;99.90;;;;;;5053546;28;20448;-65
2021/03/17 00:05:27;;;;;;;12.43;3.58;;;3.30;99.90;;;;;;5053437;28;20044;-65
2021/03/17 00:07:52;;;;;;;18.58;4.00;;;3.20;99.90;;;;;;5053773;28;20108;-65
2021/03/17 00:10:20;;;;;;;11.48;3.53;;;3.20;99.90;;;;;;5053422;28;20104;-65
2021/03/17 00:12:47;;;;;;;9.27;3.22;;;3.20;99.90;;;;;;5053464;28;20382;-65
2021/03/17 00:15:16;;;;;;;10.57;3.45;;;3.20;99.90;;;;;;5053439;28;20056;-65
2021/03/17 00:17:42;;;;;;;9.20;3.55;;;3.20;99.90;;;;;;5053440;28;20049;-65
2021/03/17 00:20:09;;;;;;;13.13;3.63;;;3.30;99.90;;;;;;5052210;28;20040;-65
2021/03/17 00:22:35;;;;;;;16.65;4.05;;;3.30;99.90;;;;;;5053671;28;20025;-65
2021/03/17 00:25:00;;;;;;;14.07;3.38;;;3.40;99.90;;;;;;5053325;28;20374;-65
2021/03/17 00:27:26;;;;;;;16.45;4.22;;;3.50;99.90;;;;;;5053322;28;20092;-65
2021/03/17 00:29:51;;;;;;;10.88;3.63;;;3.50;99.90;;;;;;5051699;28;20032;-65
2021/03/17 00:32:17;;;;;;;15.55;3.83;;;3.50;99.90;;;;;;5053952;28;20021;-65
2021/03/17 00:34:42;;;;;;;17.35;3.92;;;3.60;99.90;;;;;;5056865;28;20043;-65
2021/03/17 00:37:08;;;;;;;10.85;2.97;;;3.60;99.90;;;;;;5057346;28;20051;-65
2021/03/17 00:39:34;;;;;;;16.08;4.05;;;3.70;99.90;;;;;;5057349;28;20032;-65
2021/03/17 00:41:59;;;;;;;15.98;3.30;;;3.90;99.90;;;;;;5057313;28;20110;-65
2021/03/17 00:44:25;;;;;;;15.73;2.80;;;3.90;99.90;;;;;;5056986;28;20029;-65
2021/03/17 00:46:50;;;;;;;13.35;3.40;;;4.10;99.90;;;;;;5056947;28;20420;-65
2021/03/17 00:49:16;;;;;;;8.55;2.80;;;4.10;99.90;;;;;;5057176;28;20057;-65
2021/03/17 00:51:41;;;;;;;12.65;2.80;;;4.10;99.90;;;;;;5056356;28;20072;-65
2021/03/17 00:54:07;;;;;;;12.25;2.97;;;4.20;99.90;;;;;;5055244;28;20025;-65
2021/03/17 00:56:32;;;;;;;13.52;3.17;;;4.20;99.90;;;;;;5056473;28;20025;-65
2021/03/17 00:58:58;;;;;;;10.13;2.90;;;4.30;99.90;;;;;;5056959;28;20021;-65
2021/03/17 01:01:23;;;;;;;9.95;2.90;;;4.20;99.90;;;;;;5056934;28;20040;-65
2021/03/17 01:03:49;;;;;;;9.23;3.00;;;4.20;99.90;;;;;;5056889;28;20473;-65
2021/03/17 01:06:14;;;;;;;11.10;3.42;;;4.20;99.90;;;;;;5056852;28;20017;-65
2021/03/17 01:08:41;;;;;;;18.20;3.15;;;4.10;99.90;;;;;;5056785;28;20036;-64
2021/03/17 01:11:07;;;;;;;15.68;3.42;;;4.20;99.90;;;;;;5056696;28;20049;-65
2021/03/17 01:13:32;;;;;;;11.80;2.90;;;4.20;99.90;;;;;;5055275;28;20472;-65
2021/03/17 01:15:58;;;;;;;10.57;3.08;;;4.20;99.90;;;;;;5056658;28;20029;-65
2021/03/17 01:18:24;;;;;;;17.55;2.72;;;4.30;99.90;;;;;;5055466;28;20025;-65
2021/03/17 01:20:49;;;;;;;9.15;2.25;;;4.40;99.90;;;;;;5056014;28;20033;-65
2021/03/17 01:23:15;;;;;;;11.18;2.80;;;4.50;99.90;;;;;;5054805;28;20083;-65
2021/03/17 01:25:43;;;;;;;9.60;2.90;;;4.50;99.90;;;;;;5056508;28;20056;-65
2021/03/17 01:28:11;;;;;;;12.30;2.83;;;4.50;99.90;;;;;;5056432;28;20025;-65
2021/03/17 01:30:39;;;;;;;11.57;3.60;;;4.50;99.90;;;;;;5054834;28;20025;-65
2021/03/17 01:33:05;;;;;;;14.48;3.17;;;4.50;99.90;;;;;;5056369;28;20496;-65
2021/03/17 01:35:32;;;;;;;12.35;3.85;;;4.50;99.90;;;;;;5056307;28;20021;-65
2021/03/17 01:37:58;;;;;;;11.43;3.50;;;4.60;99.90;;;;;;5055974;28;20057;-65
2021/03/17 01:40:26;;;;;;;10.02;3.50;;;4.60;99.90;;;;;;5054398;28;20029;-65
2021/03/17 01:42:53;;;;;;;12.68;4.32;;;4.60;99.90;;;;;;5055538;28;20025;-65
2021/03/17 01:45:18;;;;;;;10.43;4.18;;;4.50;99.90;;;;;;5056129;28;20025;-65
2021/03/17 01:47:46;;;;;;;16.17;4.50;;;4.50;99.90;;;;;;5055817;28;20095;-65
2021/03/17 01:50:15;;;;;;;17.05;4.55;;;4.50;99.90;;;;;;5055206;28;20049;-65
2021/03/17 01:52:41;;;;;;;17.23;5.00;;;4.50;99.90;;;;;;5055775;28;20040;-65
2021/03/17 01:55:09;;;;;;;15.48;5.20;;;4.50;99.90;;;;;;5055689;28;20422;-65
2021/03/17 01:57:35;;;;;;;21.52;7.30;;;4.50;99.90;;;;;;5055646;28;20100;-65
2021/03/17 02:00:03;;;;;;;13.02;5.60;;;4.50;99.90;;;;;;5055610;28;20021;-65
2021/03/17 02:02:30;;;;;;;10.60;6.00;;;4.60;99.90;;;;;;5054361;28;20420;-65
2021/03/17 02:04:56;;;;;;;20.38;6.55;;;4.60;99.90;;;;;;5055466;28;20116;-65
2021/03/17 02:07:21;;;;;;;18.77;6.63;;;4.50;99.90;;;;;;5054525;28;20060;-65
2021/03/17 02:09:47;;;;;;;18.40;6.57;;;4.50;99.90;;;;;;5055571;28;20116;-65
2021/03/17 02:12:37;;;;;;;17.60;6.78;;;4.50;99.90;;;;;;5055615;28;20028;-65
2021/03/17 02:15:23;;;;;;;21.98;7.30;;;4.50;99.90;;;;;;5055561;28;20020;-65
2021/03/17 02:17:50;;;;;;;16.08;6.80;;;4.50;99.90;;;;;;5055508;28;20035;-65
2021/03/17 02:20:44;;;;;;;15.63;6.90;;;4.50;99.90;;;;;;5054881;28;20033;-65
2021/03/17 02:23:30;;;;;;;13.38;6.78;;;4.40;99.90;;;;;;5053504;28;20116;-65
2021/03/17 02:26:10;;;;;;;21.70;7.05;;;4.40;99.90;;;;;;5053982;28;20309;-65
2021/03/17 02:29:02;;;;;;;20.67;7.22;;;4.60;99.90;;;;;;5054330;28;20446;-65
2021/03/17 02:31:56;;;;;;;22.35;8.05;;;4.50;99.90;;;;;;5054647;28;20523;-65
2021/03/17 02:34:26;;;;;;;24.15;8.15;;;4.50;99.90;;;;;;5053233;28;20474;-65
2021/03/17 02:36:59;;;;;;;15.52;8.25;;;4.50;99.90;;;;;;5055125;28;20086;-65
2021/03/17 02:39:32;;;;;;;18.85;8.27;;;4.50;99.90;;;;;;5055085;28;20020;-65
2021/03/17 02:42:22;;;;;;;18.58;8.52;;;4.40;99.90;;;;;;5055082;28;20021;-65
2021/03/17 02:44:55;;;;;;;14.05;7.13;;;4.40;99.90;;;;;;5054324;28;20029;-65
2021/03/17 02:47:21;;;;;;;15.27;5.95;;;4.30;99.90;;;;;;5054956;28;20104;-64
2021/03/17 02:49:49;;;;;;;12.23;5.85;;;4.20;99.90;;;;;;5054515;28;20045;-64
2021/03/17 02:52:16;;;;;;;9.38;5.40;;;4.20;99.90;;;;;;5054860;28;20439;-65
2021/03/17 02:54:44;;;;;;;11.35;5.65;;;4.10;99.90;;;;;;5054258;28;20020;-65
2021/03/17 02:57:17;;;;;;;8.55;5.03;;;4.10;99.90;;;;;;5054302;28;20104;-65
2021/03/17 02:59:44;;;;;;;10.52;5.40;;;4.10;99.90;;;;;;5053302;28;20024;-65
2021/03/17 03:02:11;;;;;;;12.25;5.68;;;4.00;99.90;;;;;;5054336;28;20021;-65
2021/03/17 03:04:37;;;;;;;10.55;5.88;;;4.00;99.90;;;;;;5054597;28;20454;-65
2021/03/17 03:07:04;;;;;;;9.75;5.47;;;4.00;99.90;;;;;;5053408;28;20013;-65
2021/03/17 03:09:30;;;;;;;11.27;6.32;;;3.90;99.90;;;;;;5053949;28;20021;-65
2021/03/17 03:11:58;;;;;;;9.07;5.63;;;3.80;99.90;;;;;;5053887;28;20608;-65
2021/03/17 03:14:26;;;;;;;9.75;5.13;;;3.80;99.90;;;;;;5054439;28;20017;-65
2021/03/17 03:16:55;;;;;;;12.57;6.32;;;3.90;99.90;;;;;;5053024;28;20104;-65
2021/03/17 03:19:24;;;;;;;11.38;5.90;;;3.90;99.90;;;;;;5054391;28;20021;-65
2021/03/17 03:21:53;;;;;;;12.13;5.80;;;4.00;99.90;;;;;;5054035;28;20113;-65
2021/03/17 03:24:18;;;;;;;13.10;6.45;;;3.90;99.90;;;;;;5054276;28;20381;-65
2021/03/17 03:26:49;;;;;;;11.75;5.22;;;3.90;99.90;;;;;;5053979;28;20029;-65
2021/03/17 03:29:15;;;;;;;14.43;5.45;;;3.90;99.90;;;;;;5054184;28;20021;-65
2021/03/17 03:31:41;;;;;;;10.23;5.95;;;3.90;99.90;;;;;;5053815;28;20029;-65
2021/03/17 03:34:08;;;;;;;9.80;5.60;;;4.00;99.90;;;;;;5054131;28;20421;-65
2021/03/17 03:36:33;;;;;;;9.10;5.35;;;4.00;99.90;;;;;;5054136;28;20096;-65
2021/03/17 03:39:00;;;;;;;11.73;5.30;;;4.00;99.90;;;;;;5035699;28;20477;-65
2021/03/17 03:41:27;;;;;;;9.07;5.78;;;4.00;99.90;;;;;;5054022;28;20488;-65
2021/03/17 03:43:53;;;;;;;13.40;5.57;;;4.00;99.90;;;;;;5053740;28;20079;-65
2021/03/17 03:46:19;;;;;;;10.48;6.03;;;4.10;99.90;;;;;;5053738;28;20025;-65
2021/03/17 03:48:45;;;;;;;10.80;5.07;;;4.10;99.90;;;;;;5053984;28;20071;-65
2021/03/17 03:51:10;;;;;;;10.00;5.90;;;4.10;99.90;;;;;;5052010;28;20040;-65
2021/03/17 03:53:46;;;;;;;10.82;5.75;;;4.10;99.90;;;;;;5053937;28;20596;-65
2021/03/17 03:56:17;;;;;;;8.98;6.22;;;4.10;99.90;;;;;;5053369;28;20025;-65
2021/03/17 03:58:48;;;;;;;11.25;5.93;;;4.10;99.90;;;;;;5053886;28;20021;-65
2021/03/17 04:01:23;;;;;;;10.32;5.95;;;4.10;99.90;;;;;;5053552;28;20113;-65
2021/03/17 04:03:57;;;;;;;9.38;5.85;;;4.10;99.90;;;;;;5036457;28;20025;-65
2021/03/17 04:06:24;;;;;;;8.63;5.25;;;4.10;99.90;;;;;;5054677;28;20021;-65
2021/03/17 04:08:54;;;;;;;11.13;5.65;;;4.10;99.90;;;;;;5057654;28;20025;-65
2021/03/17 04:11:22;;;;;;;10.57;6.20;;;4.10;99.90;;;;;;5056334;28;20059;-65
2021/03/17 04:13:48;;;;;;;10.77;6.30;;;4.10;99.90;;;;;;5057254;28;20021;-65
2021/03/17 04:16:16;;;;;;;10.00;6.15;;;4.20;99.90;;;;;;5057518;28;20017;-65
2021/03/17 04:18:44;;;;;;;14.40;6.63;;;4.10;99.90;;;;;;5057229;28;20052;-65
2021/03/17 04:21:16;;;;;;;10.90;5.97;;;4.10;99.90;;;;;;5057706;28;20458;-65
2021/03/17 04:23:43;;;;;;;10.73;6.07;;;4.10;99.90;;;;;;5057646;28;20044;-65
2021/03/17 04:26:10;;;;;;;11.98;6.15;;;4.10;99.90;;;;;;5056474;28;20056;-65
2021/03/17 04:28:37;;;;;;;11.98;5.60;;;4.10;99.90;;;;;;5056016;28;20492;-65
2021/03/17 04:31:03;;;;;;;10.40;5.60;;;4.10;99.90;;;;;;5057432;28;20067;-65
2021/03/17 04:33:30;;;;;;;11.18;6.38;;;4.10;99.90;;;;;;5057447;28;20059;-65
2021/03/17 04:35:58;;;;;;;10.57;6.00;;;4.10;99.90;;;;;;5056436;28;20029;-65
2021/03/17 04:38:26;;;;;;;10.57;6.05;;;4.10;99.90;;;;;;5057137;28;20070;-65
2021/03/17 04:40:53;;;;;;;12.93;6.47;;;4.10;99.90;;;;;;5057349;28;20028;-65
2021/03/17 04:43:19;;;;;;;16.60;6.30;;;4.20;99.90;;;;;;5057295;28;20029;-65
2021/03/17 04:45:46;;;;;;;12.68;6.50;;;4.20;99.90;;;;;;5057011;28;20406;-65
2021/03/17 04:48:11;;;;;;;14.40;6.10;;;4.10;99.90;;;;;;5057206;28;20028;-65
2021/03/17 04:50:38;;;;;;;15.60;6.47;;;4.00;99.90;;;;;;5056635;28;20053;-65
2021/03/17 04:53:04;;;;;;;12.93;6.07;;;4.00;99.90;;;;;;5056575;28;20110;-65
2021/03/17 04:55:30;;;;;;;10.75;5.90;;;4.10;99.90;;;;;;5057092;28;20029;-65
2021/03/17 04:57:57;;;;;;;10.32;4.82;;;4.10;99.90;;;;;;5056786;28;20025;-65
2021/03/17 05:00:25;;;;;;;8.00;3.70;;;3.80;99.90;;;;;;5056963;28;20056;-65
2021/03/17 05:02:56;;;;;;;9.15;3.42;;;3.60;99.90;;;;;;5056652;28;20521;-64
2021/03/17 05:05:23;;;;;;;8.02;3.20;;;3.50;99.90;;;;;;5055876;28;20048;-65
2021/03/17 05:07:50;;;;;;;7.55;2.78;;;3.40;99.90;;;;;;5056575;28;20033;-64
2021/03/17 05:10:17;;;;;;;11.32;3.10;;;3.30;99.90;;;;;;5056738;28;20044;-64
2021/03/17 05:12:43;;;;;;;7.28;3.00;;;3.20;99.90;;;;;;5056524;28;20021;-64
2021/03/17 05:15:10;;;;;;;12.80;4.15;;;3.10;99.90;;;;;;5056711;28;20100;-65
2021/03/17 05:17:37;;;;;;;10.98;4.13;;;3.10;99.90;;;;;;5056068;28;20024;-64
2021/03/17 05:20:06;;;;;;;11.43;4.00;;;3.20;99.90;;;;;;5055943;28;20070;-65
2021/03/17 05:22:32;;;;;;;10.25;4.43;;;3.20;99.90;;;;;;5054787;28;20029;-65
2021/03/17 05:24:58;;;;;;;11.88;4.95;;;3.20;99.90;;;;;;5056510;28;20029;-65
2021/03/17 05:27:41;;;;;;;8.88;4.50;;;3.20;99.90;;;;;;5056211;28;20017;-64
2021/03/17 05:30:10;;;;;;;10.60;5.28;;;3.20;99.90;;;;;;5038311;28;20052;-65
2021/03/17 05:32:39;;;;;;;11.32;5.13;;;3.20;99.90;;;;;;5056089;28;20478;-64
2021/03/17 05:35:07;;;;;;;12.20;4.68;;;3.20;99.90;;;;;;5056365;28;20025;-64
2021/03/17 05:37:33;;;;;;;12.50;4.57;;;3.20;99.90;;;;;;5056312;28;20360;-65
2021/03/17 05:39:59;;;;;;;9.57;5.05;;;3.30;99.90;;;;;;5055977;28;20029;-65
2021/03/17 05:42:25;;;;;;;10.75;5.20;;;3.40;99.90;;;;;;5056218;28;20440;-64
2021/03/17 05:44:53;;;;;;;9.65;4.85;;;3.40;99.90;;;;;;5056160;28;20013;-64
2021/03/17 05:47:20;;;;;;;11.27;5.22;;;3.40;99.90;;;;;;5055847;28;20017;-64
2021/03/17 05:49:46;;;;;;;12.40;5.07;;;3.40;99.90;;;;;;5055522;28;20401;-64
2021/03/17 05:52:15;;;;;;;13.20;5.05;;;3.40;99.90;;;;;;5054235;28;20119;-64
2021/03/17 05:54:40;;;;;;;10.48;4.45;;;3.40;99.90;;;;;;5055436;28;20422;-64
2021/03/17 05:57:06;;;;;;;12.30;4.57;;;3.50;99.90;;;;;;5055952;28;20056;-64
2021/03/17 05:59:32;;;;;;;14.25;4.00;;;3.50;99.90;;;;;;5055624;28;20108;-64
2021/03/17 06:01:58;;;;;;;8.77;3.80;;;3.40;99.90;;;;;;5055809;28;20035;-64
2021/03/17 06:04:28;;;;;;;8.80;3.35;;;3.40;99.90;;;;;;5055287;28;20059;-64
2021/03/17 06:06:57;;;;;;;8.35;2.95;;;3.40;99.90;;;;;;5055706;28;20035;-64
2021/03/17 06:09:25;;;;;;;9.05;3.38;;;3.40;99.90;;;;;;5055701;28;20029;-64
2021/03/17 06:11:51;;;;;;;8.30;3.50;;;3.50;99.90;;;;;;5055587;28;20056;-64
2021/03/17 06:14:20;;;;;;;8.00;2.90;;;3.50;99.90;;;;;;5055566;28;20108;-64
2021/03/17 06:16:47;;;;;;;12.35;3.47;;;3.50;99.90;;;;;;5055534;28;20027;-64
2021/03/17 06:19:14;;;;;;;13.00;3.78;;;3.40;99.90;;;;;;5054897;28;20056;-65
2021/03/17 06:21:41;;;;;;;7.53;3.08;;;3.50;99.90;;;;;;5055434;28;20025;-65
2021/03/17 06:24:07;;;;;;;11.50;3.30;;;3.50;99.90;;;;;;5055437;28;20024;-64
2021/03/17 06:26:35;;;;;;;8.80;3.45;;;3.50;99.90;;;;;;5037474;28;20025;-64
2021/03/17 06:29:00;;;;;;;6.82;2.95;;;3.50;99.90;;;;;;5055244;28;20028;-65
2021/03/17 06:31:27;;;;;;;8.90;3.35;;;3.60;99.90;;;;;;5054020;28;20395;-64
2021/03/17 06:33:53;;;;;;;11.82;3.15;;;3.60;99.90;;;;;;5055180;28;20017;-65
2021/03/17 06:36:21;;;;;;;13.60;2.90;;;3.60;99.90;;;;;;5053363;28;20393;-64
2021/03/17 06:38:48;;;;;;;12.13;3.55;;;3.60;99.90;;;;;;5055099;28;20412;-65
2021/03/17 06:41:15;;;;;;;9.15;2.30;;;3.60;99.90;;;;;;5054789;28;20528;-64
2021/03/17 06:43:43;;;;;;;10.20;2.83;;;3.60;99.90;;;;;;5054967;28;20039;-65
2021/03/17 06:46:11;;;;;;;5.72;2.97;;;3.70;99.90;;;;;;5054392;28;20027;-64
2021/03/17 06:48:39;;;;;;;6.72;2.50;;;3.70;99.90;;;;;;5053218;28;20040;-65
2021/03/17 06:51:17;;;;;;;10.63;3.30;;;3.70;99.90;;;;;;5054347;28;20136;-65
2021/03/17 06:53:53;;;;;;;7.05;2.70;;;3.70;99.90;;;;;;5054814;28;20090;-64
2021/03/17 06:56:38;;;;;;;8.45;2.90;;;3.80;99.90;;;;;;5054591;28;20050;-64
2021/03/17 06:59:06;;;;;;;11.80;3.03;;;3.90;99.90;;;;;;5054347;28;20017;-65
2021/03/17 07:01:36;;;;;;;9.02;2.92;;;3.80;99.90;;;;;;5054494;28;20029;-65
2021/03/17 07:04:08;;;;;;;7.90;2.90;;;3.90;99.90;;;;;;5053829;28;20039;-65
2021/03/17 07:06:35;;;;;;;15.65;3.97;;;4.00;99.90;;;;;;5052150;28;20104;-65
2021/03/17 07:09:16;;;;;;;13.65;3.80;;;4.00;99.90;;;;;;5053847;28;20036;-65
2021/03/17 07:11:42;;;;;;;9.80;3.00;;;3.90;99.90;;;;;;5053688;28;20028;-65
2021/03/17 07:14:08;;;;;;;7.53;2.92;;;3.90;99.90;;;;;;5035036;28;20029;-65
2021/03/17 07:16:37;;;;;;;12.50;3.33;;;4.00;99.90;;;;;;5054071;28;20381;-65
2021/03/17 07:19:04;;;;;;;10.60;3.15;;;4.10;99.90;;;;;;5052235;28;20029;-64
2021/03/17 07:21:32;;;;;;;8.50;3.03;;;4.20;99.90;;;;;;5052779;28;20025;-65
2021/03/17 07:23:58;;;;;;;9.60;3.15;;;4.10;99.90;;;;;;5053473;28;20032;-65
2021/03/17 07:26:27;;;;;;;11.10;3.58;;;4.20;99.90;;;;;;5054180;28;20100;-65
2021/03/17 07:29:04;;;;;;;13.20;4.05;;;4.20;99.90;;;;;;5053380;28;20350;-64
2021/03/17 07:31:33;;;;;;;9.38;3.22;;;4.30;99.90;;;;;;5053737;28;20025;-64
2021/03/17 07:34:20;;;;;;;14.27;4.00;;;4.30;99.90;;;;;;5053303;28;20465;-64
2021/03/17 07:37:03;;;;;;;14.98;3.70;;;4.20;99.90;;;;;;5051287;28;20027;-65
2021/03/17 07:39:31;;;;;;;9.13;3.03;;;4.20;99.90;;;;;;5052946;28;20029;-64
2021/03/17 07:42:00;;;;;;;10.25;4.13;;;4.30;99.90;;;;;;5042252;28;20029;-64
2021/03/17 07:44:27;;;;;;;14.82;5.38;;;4.40;99.90;;;;;;5049480;28;20033;-64
2021/03/17 07:46:56;;;;;;;10.85;4.60;;;4.30;99.90;;;;;;5052881;28;20078;-65
2021/03/17 07:49:23;;;;;;;12.85;5.55;;;4.50;99.90;;;;;;5052845;28;20033;-65
2021/03/17 07:51:53;;;;;;;11.98;5.28;;;4.50;99.90;;;;;;5052367;28;20445;-64
2021/03/17 07:54:26;;;;;;;13.80;5.72;;;4.60;99.90;;;;;;5052280;28;20105;-64
2021/03/17 07:56:51;;;;;;;12.48;5.60;;;4.70;99.90;;;;;;5052825;28;20021;-65
2021/03/17 07:59:18;;;;;;;11.18;5.53;;;4.70;99.90;;;;;;5052849;28;20103;-65
2021/03/17 08:01:45;;;;;;;11.57;6.05;;;4.80;99.90;;;;;;5052730;28;20021;-64
2021/03/17 08:04:11;;;;;;;13.65;5.75;;;4.80;99.90;;;;;;5052337;28;20108;-64
2021/03/17 08:06:37;;;;;;;13.95;5.70;;;4.70;99.90;;;;;;5052087;28;20374;-65
2021/03/17 08:09:03;;;;;;;15.10;5.72;;;4.80;99.90;;;;;;5052775;28;20094;-64
2021/03/17 08:11:30;;;;;;;10.52;5.72;;;4.80;99.90;;;;;;5052455;28;20028;-65
2021/03/17 08:13:56;;;;;;;15.68;5.65;;;4.80;99.90;;;;;;5051081;28;20017;-65
2021/03/17 08:16:27;;;;;;;14.07;5.88;;;4.90;99.90;;;;;;5053405;28;20024;-64
2021/03/17 08:18:53;;;;;;;13.07;5.22;;;5.00;99.90;;;;;;5052292;28;20021;-65
2021/03/17 08:21:47;;;;;;;16.95;6.18;;;5.10;99.90;;;;;;5052817;28;20075;-65
2021/03/17 08:24:36;;;;;;;12.73;5.60;;;5.10;99.90;;;;;;5052151;28;20029;-65
2021/03/17 08:29:44;;;;;;;21.17;5.95;;;5.00;99.90;;;;;;5061890;28;20366;-65
2021/03/17 08:32:11;;;;;;;21.15;6.00;;;5.00;99.90;;;;;;5050215;28;20033;-65
2021/03/17 08:34:38;;;;;;;12.82;5.10;;;4.90;99.90;;;;;;5050948;28;20470;-64
2021/03/17 08:37:05;;;;;;;8.40;4.90;;;4.80;99.90;;;;;;5054414;28;20029;-64
2021/03/17 08:45:19;;;;;;;16.45;5.43;;;5.20;99.90;;;;;;5111042;27;20416;-65
2021/03/17 08:47:46;;;;;;;13.95;4.50;;;5.40;99.90;;;;;;5110383;28;20020;-65
2021/03/17 08:52:53;;;;;;;9.57;4.53;;;5.30;99.90;;;;;;5111033;27;20371;-64
2021/03/17 08:55:20;;;;;;;16.35;5.90;;;5.30;99.90;;;;;;5110779;28;20092;-64
2021/03/17 08:58:07;;;;;;;14.63;5.53;;;5.00;99.90;;;;;;5115176;28;20097;-64
2021/03/17 09:01:00;;;;;;;18.05;5.47;;;5.00;99.90;;;;;;5128928;27;20022;-64
2021/03/17 09:03:47;;;;;;;16.63;5.47;;;4.90;99.90;;;;;;5115209;28;20131;-64
2021/03/17 09:08:55;;;;;;;13.73;6.10;;;4.70;99.90;;;;;;5110447;27;20371;-64
2021/03/17 09:11:43;;;;;;;16.35;6.88;;;4.10;99.90;;;;;;5098848;28;20020;-65
2021/03/17 09:14:17;;;;;;;20.75;7.20;;;4.00;99.90;;;;;;5090574;28;20016;-64
2021/03/17 09:17:21;;;;;;;12.40;6.20;;;3.80;99.90;;;;;;5080444;28;20530;-64
2021/03/17 09:20:07;;;;;;;;;;;3.80;99.90;;;;;;5090335;28;20031;-64
2021/03/17 09:22:37;;;;;;;12.65;6.57;;;3.90;99.90;;;;;;5081949;28;20015;-65
2021/03/17 09:25:24;;;;;;;15.18;7.00;;;4.10;99.90;;;;;;5095326;28;20028;-65
2021/03/17 09:27:52;;;;;;;18.10;7.45;;;4.20;99.90;;;;;;5097323;28;20116;-65
2021/03/17 09:30:21;;;;;;;13.70;6.03;;;4.40;99.90;;;;;;5089597;28;20020;-64
2021/03/17 09:32:47;;;;;;;16.85;6.82;;;4.50;99.90;;;;;;5093291;28;20073;-64
2021/03/17 09:35:14;;;;;;;16.83;6.70;;;4.80;99.90;;;;;;5087268;28;20469;-65
2021/03/17 09:37:40;;;;;;;16.73;6.25;;;5.10;99.90;;;;;;5105182;28;20068;-64
2021/03/17 09:40:07;;;;;;;10.98;5.75;;;5.50;99.90;;;;;;5092395;28;20095;-64
2021/03/17 09:42:36;;;;;;;11.45;4.30;;;5.60;99.90;;;;;;5096050;28;20456;-65
2021/03/17 09:45:02;;;;;;;11.32;5.43;;;6.10;99.90;;;;;;5104740;28;20086;-65
2021/03/17 09:47:30;;;;;;;10.93;4.30;;;6.30;99.90;;;;;;5088365;28;20389;-65
2021/03/17 09:49:56;;;;;;;10.30;3.67;;;6.10;99.90;;;;;;5096281;28;20176;-64
2021/03/17 09:52:23;;;;;;;11.45;3.90;;;6.00;99.90;;;;;;5100124;28;20024;-64
2021/03/17 09:54:48;;;;;;;7.70;3.70;;;5.80;99.90;;;;;;5091046;28;20039;-64
2021/03/17 09:57:14;;;;;;;9.07;3.13;;;6.30;99.90;;;;;;5090022;28;20480;-65
2021/03/17 09:59:42;;;;;;;8.15;2.85;;;6.50;99.90;;;;;;5104423;28;20035;-65
2021/03/17 10:04:53;;;;;;;7.43;2.50;;;7.30;99.90;;;;;;5111347;27;20355;-65
2021/03/17 10:09:57;;;;;;;9.05;2.72;;;7.80;99.90;;;;;;5110736;27;20359;-65
2021/03/17 10:12:25;;;;;;;11.20;3.08;;;7.90;99.90;;;;;;5092553;28;20023;-66
2021/03/17 10:14:53;;;;;;;8.93;3.08;;;7.50;99.90;;;;;;5094286;28;20016;-66
2021/03/17 10:17:22;;;;;;;12.10;2.97;;;7.60;99.90;;;;;;5101438;28;20067;-63
2021/03/17 10:20:00;;;;;;;6.43;2.38;;;7.40;99.90;;;;;;5099967;28;20064;-65
2021/03/17 10:22:27;;;;;;;5.07;2.63;;;7.10;99.90;;;;;;5091287;28;20066;-65
2021/03/17 10:24:55;;;;;;;9.65;3.35;;;6.90;99.90;;;;;;5110520;28;20108;-65
2021/03/17 10:27:23;;;;;;;10.95;3.85;;;6.70;99.90;;;;;;5096477;28;20035;-66
2021/03/17 10:29:50;;;;;;;7.80;2.80;;;6.70;99.90;;;;;;5106896;28;20016;-63
2021/03/17 10:32:20;;;;;;;10.85;3.40;;;6.60;99.90;;;;;;5099380;28;20101;-64
2021/03/17 10:34:46;;;;;;;9.15;2.25;;;6.60;99.90;;;;;;5094141;28;20769;-64
2021/03/17 10:37:15;;;;;;;8.25;3.22;;;6.50;99.90;;;;;;5103014;28;20026;-64
2021/03/17 10:39:41;;;;;;;7.40;2.97;;;6.60;99.90;;;;;;5109624;28;20012;-65
2021/03/17 10:42:24;;;;;;;6.38;2.45;;;6.30;99.90;;;;;;5092495;28;20025;-63
2021/03/17 10:45:09;;;;;;;8.23;2.03;;;6.00;99.90;;;;;;5089171;28;20048;-63
2021/03/17 10:47:37;;;;;;;7.28;2.20;;;6.00;99.90;;;;;;5089779;28;20071;-65
2021/03/17 10:50:05;;;;;;;11.55;3.13;;;5.90;99.90;;;;;;5094685;28;20012;-66
2021/03/17 10:52:33;;;;;;;10.70;3.20;;;6.10;99.90;;;;;;5087850;28;20016;-64
2021/03/17 10:55:11;;;;;;;5.65;2.30;;;6.30;99.90;;;;;;5093018;28;20020;-65
2021/03/17 10:57:37;;;;;;;8.13;2.75;;;6.10;99.90;;;;;;5103135;28;20341;-66
2021/03/17 11:00:34;;;;;;;7.78;2.88;;;6.20;99.90;;;;;;5106140;28;20024;-65
2021/03/17 11:02:59;;;;;;;9.77;2.85;;;6.10;99.90;;;;;;5088663;28;20056;-65
2021/03/17 11:05:29;;;;;;;9.63;2.85;;;6.20;99.90;;;;;;5088442;28;20028;-65
2021/03/17 11:08:05;;;;;;;8.57;3.58;;;6.30;99.90;;;;;;5089546;28;20047;-65
2021/03/17 11:10:52;;;;;;;11.20;3.65;;;6.40;99.90;;;;;;5089842;28;20067;-65
2021/03/17 11:16:02;;;;;;;9.77;3.03;;;6.30;99.90;;;;;;5111447;27;20101;-63
2021/03/17 11:18:32;;;;;;;9.93;4.20;;;6.60;99.90;;;;;;5091186;28;20060;-63
2021/03/17 11:21:02;;;;;;;9.80;4.28;;;6.40;99.90;;;;;;5089450;28;20030;-64
2021/03/17 11:23:34;;;;;;;16.60;3.72;;;6.40;99.90;;;;;;5070793;28;20043;-65
2021/03/17 11:26:01;;;;;;;6.20;3.57;;;6.70;99.90;;;;;;5096051;28;20020;-65
2021/03/17 11:28:30;;;;;;;11.57;3.83;;;6.90;99.90;;;;;;5096636;28;20036;-66
2021/03/17 11:31:01;;;;;;;9.38;3.13;;;7.20;99.90;;;;;;5109339;28;20028;-65
2021/03/17 11:33:28;;;;;;;10.30;3.70;;;7.20;99.90;;;;;;5097375;28;20059;-66
2021/03/17 11:35:56;;;;;;;9.05;3.38;;;7.30;99.90;;;;;;5107094;28;20090;-64
2021/03/17 11:38:23;;;;;;;11.98;3.38;;;7.50;99.90;;;;;;5068143;28;20032;-65
2021/03/17 11:40:51;;;;;;;11.20;3.35;;;7.20;99.90;;;;;;5106054;28;20111;-65
2021/03/17 11:43:19;;;;;;;9.43;3.00;;;6.90;99.90;;;;;;5099604;28;20054;-65
2021/03/17 11:45:47;;;;;;;6.88;3.00;;;6.90;99.90;;;;;;5100271;28;20024;-65
2021/03/17 11:48:13;;;;;;;7.63;2.63;;;7.00;99.90;;;;;;5088075;28;20016;-62
2021/03/17 11:50:41;;;;;;;9.32;3.53;;;7.10;99.90;;;;;;5071745;28;20032;-65
2021/03/17 11:53:07;;;;;;;9.05;2.35;;;7.30;99.90;;;;;;5090277;28;20035;-65
2021/03/17 11:55:33;;;;;;;5.40;2.70;;;7.00;99.90;;;;;;5090129;28;20024;-65
2021/03/17 11:57:59;;;;;;;10.60;2.67;;;7.20;99.90;;;;;;5089696;28;20029;-65
2021/03/17 12:00:25;;;;;;;6.32;2.55;;;7.20;99.90;;;;;;5088328;28;20036;-65
2021/03/17 12:02:51;;;;;;;7.43;2.40;;;7.40;99.90;;;;;;5089049;28;20032;-65
2021/03/17 12:05:18;;;;;;;11.88;2.90;;;7.50;99.90;;;;;;5091343;28;20483;-63
2021/03/17 12:07:44;;;;;;;8.23;2.90;;;7.60;99.90;;;;;;5077850;28;20036;-64
2021/03/17 12:10:11;;;;;;;9.07;2.70;;;7.50;99.90;;;;;;5089155;28;20056;-64
2021/03/17 12:12:38;;;;;;;8.15;2.53;;;7.70;99.90;;;;;;5090040;28;20568;-64
2021/03/17 12:15:06;;;;;;;4.28;2.35;;;8.00;99.90;;;;;;5094309;28;20101;-63
2021/03/17 12:17:31;;;;;;;10.55;2.97;;;8.00;99.90;;;;;;5109309;28;20012;-64
2021/03/17 12:19:57;;;;;;;10.32;2.72;;;7.90;99.90;;;;;;5095513;28;20534;-63
2021/03/17 12:22:23;;;;;;;17.60;2.90;;;8.30;99.90;;;;;;5087435;28;20036;-64
2021/03/17 12:24:49;;;;;;;9.57;3.55;;;8.40;99.90;;;;;;5101374;28;20035;-63
2021/03/17 12:27:14;;;;;;;7.93;2.30;;;7.90;99.90;;;;;;5074543;28;20425;-63
2021/03/17 12:29:40;;;;;;;12.95;3.17;;;7.80;99.90;;;;;;5092031;28;20032;-64
2021/03/17 12:32:05;;;;;;;6.55;2.30;;;8.10;99.90;;;;;;5080679;28;20029;-63
2021/03/17 12:34:32;;;;;;;5.97;2.08;;;8.40;99.90;;;;;;5090999;28;20051;-65
2021/03/17 12:36:58;;;;;;;11.45;2.17;;;8.10;99.90;;;;;;5085604;28;20020;-63
2021/03/17 12:39:24;;;;;;;6.00;2.80;;;7.70;99.90;;;;;;5056959;28;20043;-65
2021/03/17 12:41:49;;;;;;;9.27;3.10;;;7.50;99.90;;;;;;5095702;28;20031;-63
2021/03/17 12:44:15;;;;;;;9.63;2.75;;;7.70;99.90;;;;;;5076321;28;20050;-65
2021/03/17 12:46:41;;;;;;;6.70;2.47;;;7.90;99.90;;;;;;5093866;28;20388;-63
2021/03/17 12:49:06;;;;;;;7.80;2.70;;;7.70;99.90;;;;;;5092861;28;20023;-63
2021/03/17 12:51:32;;;;;;;8.00;2.70;;;7.50;99.90;;;;;;5090503;28;20031;-65
2021/03/17 12:53:58;;;;;;;8.27;3.05;;;7.40;99.90;;;;;;5084997;28;20032;-63
2021/03/17 12:56:23;;;;;;;12.45;2.83;;;7.40;99.90;;;;;;5075994;28;20036;-65
2021/03/17 12:58:49;;;;;;;6.97;2.90;;;7.20;99.90;;;;;;5076744;28;20052;-65
2021/03/17 13:01:14;;;;;;;6.30;2.42;;;7.30;99.90;;;;;;5076619;28;20536;-64
2021/03/17 13:03:40;;;;;;;7.30;2.80;;;7.10;99.90;;;;;;5075071;28;20038;-65
2021/03/17 13:06:06;;;;;;;11.63;2.80;;;6.90;99.90;;;;;;5075694;28;20021;-65
2021/03/17 13:08:31;;;;;;;10.18;2.67;;;7.20;99.90;;;;;;5074696;28;20535;-65
2021/03/17 13:10:57;;;;;;;8.20;2.80;;;7.70;99.90;;;;;;5082050;28;20052;-65
2021/03/17 13:13:23;;;;;;;8.27;3.47;;;7.90;99.90;;;;;;5074632;28;20021;-65
2021/03/17 13:15:49;;;;;;;9.25;3.45;;;7.60;99.90;;;;;;5094118;28;20477;-65
2021/03/17 13:18:14;;;;;;;7.28;2.97;;;7.40;99.90;;;;;;5094957;28;20023;-65
2021/03/17 13:20:40;;;;;;;10.18;2.88;;;7.40;99.90;;;;;;5095355;28;20380;-65